sensor_id;sensor_type;location;lat;lon;timestamp;temperature;humidity
64209;DHT22;50527;52.414;13.226;2023-03-21T00:01:55;10.20;89.20
64209;DHT22;50527;52.414;13.226;2023-03-21T00:04:23;10.10;89.60
64209;DHT22;50527;52.414;13.226;2023-03-21T00:06:49;10.00;88.40
64209;DHT22;50527;52.414;13.226;2023-03-21T00:09:15;10.00;88.30
64209;DHT22;50527;52.414;13.226;2023-03-21T00:11:41;9.90;88.40
64209;DHT22;50527;52.414;13.226;2023-03-21T00:14:06;10.10;90.00
64209;DHT22;50527;52.414;13.226;2023-03-21T00:16:33;10.10;89.70
64209;DHT22;50527;52.414;13.226;2023-03-21T00:19:01;10.20;90.10
64209;DHT22;50527;52.414;13.226;2023-03-21T00:21:30;10.20;90.40
64209;DHT22;50527;52.414;13.226;2023-03-21T00:23:58;10.20;89.60
64209;DHT22;50527;52.414;13.226;2023-03-21T00:26:24;10.20;90.10
64209;DHT22;50527;52.414;13.226;2023-03-21T00:28:50;10.20;89.80
64209;DHT22;50527;52.414;13.226;2023-03-21T00:31:16;10.20;89.50
64209;DHT22;50527;52.414;13.226;2023-03-21T00:33:42;10.20;89.40
64209;DHT22;50527;52.414;13.226;2023-03-21T00:36:08;10.20;89.50
64209;DHT22;50527;52.414;13.226;2023-03-21T00:38:35;10.20;89.50
64209;DHT22;50527;52.414;13.226;2023-03-21T00:41:05;10.20;89.60
64209;DHT22;50527;52.414;13.226;2023-03-21T00:43:31;10.20;89.30
64209;DHT22;50527;52.414;13.226;2023-03-21T00:45:58;10.30;90.20
64209;DHT22;50527;52.414;13.226;2023-03-21T00:48:24;10.30;90.10
64209;DHT22;50527;52.414;13.226;2023-03-21T00:50:51;10.20;90.20
64209;DHT22;50527;52.414;13.226;2023-03-21T00:53:18;10.30;90.40
64209;DHT22;50527;52.414;13.226;2023-03-21T00:55:44;10.30;90.00
64209;DHT22;50527;52.414;13.226;2023-03-21T00:58:09;10.20;89.30
64209;DHT22;50527;52.414;13.226;2023-03-21T01:00:36;10.20;88.70
64209;DHT22;50527;52.414;13.226;2023-03-21T01:03:06;10.20;88.00
64209;DHT22;50527;52.414;13.226;2023-03-21T01:05:41;10.10;88.40
64209;DHT22;50527;52.414;13.226;2023-03-21T01:08:26;10.10;89.50
64209;DHT22;50527;52.414;13.226;2023-03-21T01:10:53;10.10;89.50
64209;DHT22;50527;52.414;13.226;2023-03-21T01:13:21;10.10;90.10
64209;DHT22;50527;52.414;13.226;2023-03-21T01:15:52;10.10;89.60
64209;DHT22;50527;52.414;13.226;2023-03-21T01:18:21;10.00;90.20
64209;DHT22;50527;52.414;13.226;2023-03-21T01:20:47;9.90;89.90
64209;DHT22;50527;52.414;13.226;2023-03-21T01:23:13;10.00;90.00
64209;DHT22;50527;52.414;13.226;2023-03-21T01:25:39;9.90;89.90
64209;DHT22;50527;52.414;13.226;2023-03-21T01:28:05;9.80;90.10
64209;DHT22;50527;52.414;13.226;2023-03-21T01:30:31;9.80;90.40
64209;DHT22;50527;52.414;13.226;2023-03-21T01:32:57;9.70;90.00
64209;DHT22;50527;52.414;13.226;2023-03-21T01:35:22;9.60;91.10
64209;DHT22;50527;52.414;13.226;2023-03-21T01:37:48;9.60;90.90
64209;DHT22;50527;52.414;13.226;2023-03-21T01:40:21;9.60;90.90
64209;DHT22;50527;52.414;13.226;2023-03-21T01:42:46;9.60;91.30
64209;DHT22;50527;52.414;13.226;2023-03-21T01:48:16;9.70;91.50
64209;DHT22;50527;52.414;13.226;2023-03-21T01:50:42;9.80;91.00
64209;DHT22;50527;52.414;13.226;2023-03-21T01:53:08;9.70;91.60
64209;DHT22;50527;52.414;13.226;2023-03-21T01:55:35;9.70;91.90
64209;DHT22;50527;52.414;13.226;2023-03-21T01:58:02;9.70;92.00
64209;DHT22;50527;52.414;13.226;2023-03-21T02:00:28;9.60;91.70
64209;DHT22;50527;52.414;13.226;2023-03-21T02:02:56;9.60;92.40
64209;DHT22;50527;52.414;13.226;2023-03-21T02:05:38;9.60;91.90
64209;DHT22;50527;52.414;13.226;2023-03-21T02:08:06;9.60;92.50
64209;DHT22;50527;52.414;13.226;2023-03-21T02:10:32;9.60;92.80
64209;DHT22;50527;52.414;13.226;2023-03-21T02:13:01;9.60;92.40
64209;DHT22;50527;52.414;13.226;2023-03-21T02:15:37;9.50;92.50
64209;DHT22;50527;52.414;13.226;2023-03-21T02:18:15;9.50;93.00
64209;DHT22;50527;52.414;13.226;2023-03-21T02:23:29;9.50;93.00
64209;DHT22;50527;52.414;13.226;2023-03-21T02:26:16;9.40;93.20
64209;DHT22;50527;52.414;13.226;2023-03-21T02:29:33;9.40;93.30
64209;DHT22;50527;52.414;13.226;2023-03-21T02:42:26;9.30;94.30
64209;DHT22;50527;52.414;13.226;2023-03-21T02:45:10;9.30;94.60
64209;DHT22;50527;52.414;13.226;2023-03-21T02:47:56;9.30;94.60
64209;DHT22;50527;52.414;13.226;2023-03-21T02:50:32;9.40;95.00
64209;DHT22;50527;52.414;13.226;2023-03-21T02:53:01;9.50;94.80
64209;DHT22;50527;52.414;13.226;2023-03-21T02:55:30;9.40;93.90
64209;DHT22;50527;52.414;13.226;2023-03-21T02:57:57;9.40;94.20
64209;DHT22;50527;52.414;13.226;2023-03-21T03:00:29;9.40;94.60
64209;DHT22;50527;52.414;13.226;2023-03-21T03:02:56;9.40;94.90
64209;DHT22;50527;52.414;13.226;2023-03-21T03:05:24;9.50;94.80
64209;DHT22;50527;52.414;13.226;2023-03-21T03:08:12;9.40;95.00
64209;DHT22;50527;52.414;13.226;2023-03-21T03:11:11;9.50;95.30
64209;DHT22;50527;52.414;13.226;2023-03-21T03:13:52;9.40;95.50
64209;DHT22;50527;52.414;13.226;2023-03-21T03:16:31;9.40;95.70
64209;DHT22;50527;52.414;13.226;2023-03-21T03:19:03;9.40;96.00
64209;DHT22;50527;52.414;13.226;2023-03-21T03:21:50;9.30;95.90
64209;DHT22;50527;52.414;13.226;2023-03-21T03:24:41;9.40;96.80
64209;DHT22;50527;52.414;13.226;2023-03-21T03:27:14;9.40;96.90
64209;DHT22;50527;52.414;13.226;2023-03-21T03:29:43;9.40;96.60
64209;DHT22;50527;52.414;13.226;2023-03-21T03:32:22;9.40;97.00
64209;DHT22;50527;52.414;13.226;2023-03-21T03:34:51;9.40;97.40
64209;DHT22;50527;52.414;13.226;2023-03-21T03:37:22;9.40;97.00
64209;DHT22;50527;52.414;13.226;2023-03-21T03:40:02;9.40;96.30
64209;DHT22;50527;52.414;13.226;2023-03-21T03:42:51;9.40;95.40
64209;DHT22;50527;52.414;13.226;2023-03-21T03:45:24;9.40;96.50
64209;DHT22;50527;52.414;13.226;2023-03-21T03:48:12;9.30;96.80
64209;DHT22;50527;52.414;13.226;2023-03-21T03:53:26;9.30;96.80
64209;DHT22;50527;52.414;13.226;2023-03-21T03:55:53;9.30;97.10
64209;DHT22;50527;52.414;13.226;2023-03-21T03:58:21;9.40;97.00
64209;DHT22;50527;52.414;13.226;2023-03-21T04:00:47;9.40;96.80
64209;DHT22;50527;52.414;13.226;2023-03-21T04:03:13;9.30;97.30
64209;DHT22;50527;52.414;13.226;2023-03-21T04:05:39;9.30;96.80
64209;DHT22;50527;52.414;13.226;2023-03-21T04:08:07;9.30;97.30
64209;DHT22;50527;52.414;13.226;2023-03-21T04:10:32;9.30;97.30
64209;DHT22;50527;52.414;13.226;2023-03-21T04:12:58;9.40;97.10
64209;DHT22;50527;52.414;13.226;2023-03-21T04:15:23;9.40;97.40
64209;DHT22;50527;52.414;13.226;2023-03-21T04:17:49;9.30;96.70
64209;DHT22;50527;52.414;13.226;2023-03-21T04:20:15;9.10;97.50
64209;DHT22;50527;52.414;13.226;2023-03-21T04:22:40;9.10;97.70
64209;DHT22;50527;52.414;13.226;2023-03-21T04:25:06;9.20;98.70
64209;DHT22;50527;52.414;13.226;2023-03-21T04:27:32;9.20;98.00
64209;DHT22;50527;52.414;13.226;2023-03-21T04:29:58;9.20;98.20
64209;DHT22;50527;52.414;13.226;2023-03-21T04:32:24;9.20;97.90
64209;DHT22;50527;52.414;13.226;2023-03-21T04:34:50;9.10;98.20
64209;DHT22;50527;52.414;13.226;2023-03-21T04:37:19;9.00;98.70
64209;DHT22;50527;52.414;13.226;2023-03-21T04:39:46;9.10;99.10
64209;DHT22;50527;52.414;13.226;2023-03-21T04:42:13;9.10;99.00
64209;DHT22;50527;52.414;13.226;2023-03-21T04:44:39;9.20;98.70
64209;DHT22;50527;52.414;13.226;2023-03-21T04:47:05;9.00;98.50
64209;DHT22;50527;52.414;13.226;2023-03-21T04:49:30;9.10;99.40
64209;DHT22;50527;52.414;13.226;2023-03-21T04:51:56;9.00;98.80
64209;DHT22;50527;52.414;13.226;2023-03-21T04:54:21;9.00;99.50
64209;DHT22;50527;52.414;13.226;2023-03-21T04:56:47;9.10;99.80
64209;DHT22;50527;52.414;13.226;2023-03-21T04:59:14;9.20;99.60
64209;DHT22;50527;52.414;13.226;2023-03-21T05:01:40;9.20;99.90
64209;DHT22;50527;52.414;13.226;2023-03-21T05:04:08;9.20;99.90
64209;DHT22;50527;52.414;13.226;2023-03-21T05:06:35;9.20;99.90
64209;DHT22;50527;52.414;13.226;2023-03-21T05:09:02;9.20;99.90
64209;DHT22;50527;52.414;13.226;2023-03-21T05:11:32;9.20;99.90
64209;DHT22;50527;52.414;13.226;2023-03-21T05:14:00;9.30;99.90
64209;DHT22;50527;52.414;13.226;2023-03-21T05:16:25;9.10;99.70
64209;DHT22;50527;52.414;13.226;2023-03-21T05:18:57;9.10;99.90
64209;DHT22;50527;52.414;13.226;2023-03-21T05:21:28;9.10;99.90
64209;DHT22;50527;52.414;13.226;2023-03-21T05:23:54;9.10;99.90
64209;DHT22;50527;52.414;13.226;2023-03-21T05:26:21;9.10;99.90
64209;DHT22;50527;52.414;13.226;2023-03-21T05:28:47;9.10;99.90
64209;DHT22;50527;52.414;13.226;2023-03-21T05:31:15;9.20;99.90
64209;DHT22;50527;52.414;13.226;2023-03-21T05:33:41;9.20;99.90
64209;DHT22;50527;52.414;13.226;2023-03-21T05:36:07;9.20;99.90
64209;DHT22;50527;52.414;13.226;2023-03-21T05:38:33;9.10;99.90
64209;DHT22;50527;52.414;13.226;2023-03-21T05:40:59;9.10;99.90
64209;DHT22;50527;52.414;13.226;2023-03-21T05:43:24;9.00;99.90
64209;DHT22;50527;52.414;13.226;2023-03-21T05:45:49;9.10;99.90
64209;DHT22;50527;52.414;13.226;2023-03-21T05:48:15;9.20;99.90
64209;DHT22;50527;52.414;13.226;2023-03-21T05:50:41;9.20;99.90
64209;DHT22;50527;52.414;13.226;2023-03-21T05:53:06;9.00;99.90
64209;DHT22;50527;52.414;13.226;2023-03-21T05:55:32;8.90;99.90
64209;DHT22;50527;52.414;13.226;2023-03-21T05:57:57;9.00;99.90
64209;DHT22;50527;52.414;13.226;2023-03-21T06:00:23;9.00;99.90
64209;DHT22;50527;52.414;13.226;2023-03-21T06:02:49;9.00;99.90
64209;DHT22;50527;52.414;13.226;2023-03-21T06:05:14;9.10;99.90
64209;DHT22;50527;52.414;13.226;2023-03-21T06:07:40;9.10;99.90
64209;DHT22;50527;52.414;13.226;2023-03-21T06:10:05;9.10;99.90
64209;DHT22;50527;52.414;13.226;2023-03-21T06:12:31;9.20;99.90
64209;DHT22;50527;52.414;13.226;2023-03-21T06:14:56;9.10;99.90
64209;DHT22;50527;52.414;13.226;2023-03-21T06:17:22;9.10;99.90
64209;DHT22;50527;52.414;13.226;2023-03-21T06:19:47;9.00;99.90
64209;DHT22;50527;52.414;13.226;2023-03-21T06:22:13;9.10;99.90
64209;DHT22;50527;52.414;13.226;2023-03-21T06:24:38;8.90;99.90
64209;DHT22;50527;52.414;13.226;2023-03-21T06:27:04;9.00;99.90
64209;DHT22;50527;52.414;13.226;2023-03-21T06:29:30;9.00;99.90
64209;DHT22;50527;52.414;13.226;2023-03-21T06:31:55;8.90;99.90
64209;DHT22;50527;52.414;13.226;2023-03-21T06:34:21;8.90;99.90
64209;DHT22;50527;52.414;13.226;2023-03-21T06:36:46;9.00;99.90
64209;DHT22;50527;52.414;13.226;2023-03-21T06:39:12;9.00;99.90
64209;DHT22;50527;52.414;13.226;2023-03-21T06:41:38;9.00;99.90
64209;DHT22;50527;52.414;13.226;2023-03-21T06:44:03;9.00;99.90
64209;DHT22;50527;52.414;13.226;2023-03-21T06:46:29;8.90;99.90
64209;DHT22;50527;52.414;13.226;2023-03-21T06:48:55;9.00;99.90
64209;DHT22;50527;52.414;13.226;2023-03-21T06:51:20;9.10;99.90
64209;DHT22;50527;52.414;13.226;2023-03-21T06:53:46;9.30;99.90
64209;DHT22;50527;52.414;13.226;2023-03-21T06:56:13;9.30;99.90
64209;DHT22;50527;52.414;13.226;2023-03-21T06:58:39;9.40;99.90
64209;DHT22;50527;52.414;13.226;2023-03-21T07:01:05;9.40;99.90
64209;DHT22;50527;52.414;13.226;2023-03-21T07:03:31;9.30;99.90
64209;DHT22;50527;52.414;13.226;2023-03-21T07:06:03;9.30;99.90
64209;DHT22;50527;52.414;13.226;2023-03-21T07:08:29;9.30;99.90
64209;DHT22;50527;52.414;13.226;2023-03-21T07:10:55;9.20;99.90
64209;DHT22;50527;52.414;13.226;2023-03-21T07:13:21;9.20;99.90
64209;DHT22;50527;52.414;13.226;2023-03-21T07:15:46;9.50;99.90
64209;DHT22;50527;52.414;13.226;2023-03-21T07:18:12;9.50;99.90
64209;DHT22;50527;52.414;13.226;2023-03-21T07:20:37;9.40;99.90
64209;DHT22;50527;52.414;13.226;2023-03-21T07:23:03;9.40;99.90
64209;DHT22;50527;52.414;13.226;2023-03-21T07:25:29;9.40;99.90
64209;DHT22;50527;52.414;13.226;2023-03-21T07:27:54;9.60;99.90
64209;DHT22;50527;52.414;13.226;2023-03-21T07:30:20;9.60;99.90
64209;DHT22;50527;52.414;13.226;2023-03-21T07:32:46;9.60;99.90
64209;DHT22;50527;52.414;13.226;2023-03-21T07:35:14;9.50;99.90
64209;DHT22;50527;52.414;13.226;2023-03-21T07:37:40;9.60;99.90
64209;DHT22;50527;52.414;13.226;2023-03-21T07:40:06;9.50;99.90
64209;DHT22;50527;52.414;13.226;2023-03-21T07:42:37;9.50;99.90
64209;DHT22;50527;52.414;13.226;2023-03-21T07:45:03;9.50;99.90
64209;DHT22;50527;52.414;13.226;2023-03-21T07:47:30;9.60;99.90
64209;DHT22;50527;52.414;13.226;2023-03-21T07:49:56;9.70;99.90
64209;DHT22;50527;52.414;13.226;2023-03-21T07:52:21;9.70;99.90
64209;DHT22;50527;52.414;13.226;2023-03-21T07:54:47;9.60;99.90
64209;DHT22;50527;52.414;13.226;2023-03-21T07:57:12;9.50;99.90
64209;DHT22;50527;52.414;13.226;2023-03-21T07:59:38;9.30;99.90
64209;DHT22;50527;52.414;13.226;2023-03-21T08:02:03;9.30;99.90
64209;DHT22;50527;52.414;13.226;2023-03-21T08:04:28;9.40;99.90
64209;DHT22;50527;52.414;13.226;2023-03-21T08:06:54;9.40;99.90
64209;DHT22;50527;52.414;13.226;2023-03-21T08:09:19;9.40;99.90
64209;DHT22;50527;52.414;13.226;2023-03-21T08:11:45;9.40;99.90
64209;DHT22;50527;52.414;13.226;2023-03-21T08:14:10;9.40;99.90
64209;DHT22;50527;52.414;13.226;2023-03-21T08:16:36;9.40;99.90
64209;DHT22;50527;52.414;13.226;2023-03-21T08:19:01;9.50;99.90
64209;DHT22;50527;52.414;13.226;2023-03-21T08:21:27;9.50;99.90
64209;DHT22;50527;52.414;13.226;2023-03-21T08:23:52;9.50;99.90
64209;DHT22;50527;52.414;13.226;2023-03-21T08:26:18;9.70;99.90
64209;DHT22;50527;52.414;13.226;2023-03-21T08:28:44;9.60;99.90
64209;DHT22;50527;52.414;13.226;2023-03-21T08:31:12;9.40;99.90
64209;DHT22;50527;52.414;13.226;2023-03-21T08:33:38;9.50;99.90
64209;DHT22;50527;52.414;13.226;2023-03-21T08:36:04;9.80;99.90
64209;DHT22;50527;52.414;13.226;2023-03-21T08:38:31;9.70;99.90
64209;DHT22;50527;52.414;13.226;2023-03-21T08:40:58;9.80;99.90
64209;DHT22;50527;52.414;13.226;2023-03-21T08:43:25;9.90;99.90
64209;DHT22;50527;52.414;13.226;2023-03-21T08:45:50;9.80;99.90
64209;DHT22;50527;52.414;13.226;2023-03-21T08:48:16;9.70;99.90
64209;DHT22;50527;52.414;13.226;2023-03-21T08:50:42;9.80;99.90
64209;DHT22;50527;52.414;13.226;2023-03-21T08:53:07;9.70;99.90
64209;DHT22;50527;52.414;13.226;2023-03-21T08:55:33;9.80;99.90
64209;DHT22;50527;52.414;13.226;2023-03-21T08:58:00;9.70;99.90
64209;DHT22;50527;52.414;13.226;2023-03-21T09:00:26;9.70;99.90
64209;DHT22;50527;52.414;13.226;2023-03-21T09:02:52;9.80;99.90
64209;DHT22;50527;52.414;13.226;2023-03-21T09:05:19;9.80;99.90
64209;DHT22;50527;52.414;13.226;2023-03-21T09:07:45;9.90;99.90
64209;DHT22;50527;52.414;13.226;2023-03-21T09:10:13;9.90;99.90
64209;DHT22;50527;52.414;13.226;2023-03-21T09:12:39;9.90;99.90
64209;DHT22;50527;52.414;13.226;2023-03-21T09:15:06;10.00;99.90
64209;DHT22;50527;52.414;13.226;2023-03-21T09:17:32;10.10;99.90
64209;DHT22;50527;52.414;13.226;2023-03-21T09:19:58;10.10;99.90
64209;DHT22;50527;52.414;13.226;2023-03-21T09:22:25;10.30;99.90
64209;DHT22;50527;52.414;13.226;2023-03-21T09:24:52;10.60;99.90
64209;DHT22;50527;52.414;13.226;2023-03-21T09:27:18;10.70;99.90
64209;DHT22;50527;52.414;13.226;2023-03-21T09:29:48;10.60;99.90
64209;DHT22;50527;52.414;13.226;2023-03-21T09:32:13;10.60;99.90
64209;DHT22;50527;52.414;13.226;2023-03-21T09:34:39;10.70;99.90
64209;DHT22;50527;52.414;13.226;2023-03-21T09:37:06;10.80;99.90
64209;DHT22;50527;52.414;13.226;2023-03-21T09:39:35;10.60;99.90
64209;DHT22;50527;52.414;13.226;2023-03-21T09:42:16;10.60;99.90
64209;DHT22;50527;52.414;13.226;2023-03-21T09:45:01;10.60;99.90
64209;DHT22;50527;52.414;13.226;2023-03-21T09:47:32;10.50;99.90
64209;DHT22;50527;52.414;13.226;2023-03-21T09:50:21;10.50;99.90
64209;DHT22;50527;52.414;13.226;2023-03-21T09:53:09;10.40;99.90
64209;DHT22;50527;52.414;13.226;2023-03-21T09:55:38;10.50;99.90
64209;DHT22;50527;52.414;13.226;2023-03-21T09:58:31;10.40;99.90
64209;DHT22;50527;52.414;13.226;2023-03-21T10:01:06;10.60;99.90
64209;DHT22;50527;52.414;13.226;2023-03-21T10:03:35;10.80;99.90
64209;DHT22;50527;52.414;13.226;2023-03-21T10:06:05;10.80;99.90
64209;DHT22;50527;52.414;13.226;2023-03-21T10:08:38;10.90;99.90
64209;DHT22;50527;52.414;13.226;2023-03-21T10:11:18;11.00;99.90
64209;DHT22;50527;52.414;13.226;2023-03-21T10:14:00;11.00;99.90
64209;DHT22;50527;52.414;13.226;2023-03-21T10:16:30;11.00;99.90
64209;DHT22;50527;52.414;13.226;2023-03-21T10:18:58;11.10;99.90
64209;DHT22;50527;52.414;13.226;2023-03-21T10:21:28;11.20;99.90
64209;DHT22;50527;52.414;13.226;2023-03-21T10:23:55;11.00;99.90
64209;DHT22;50527;52.414;13.226;2023-03-21T10:26:23;11.10;99.90
64209;DHT22;50527;52.414;13.226;2023-03-21T10:28:53;11.10;99.90
64209;DHT22;50527;52.414;13.226;2023-03-21T10:31:22;11.00;99.90
64209;DHT22;50527;52.414;13.226;2023-03-21T10:33:52;11.10;99.90
64209;DHT22;50527;52.414;13.226;2023-03-21T10:36:24;11.30;99.90
64209;DHT22;50527;52.414;13.226;2023-03-21T10:38:55;11.50;99.50
64209;DHT22;50527;52.414;13.226;2023-03-21T10:41:21;11.60;98.10
64209;DHT22;50527;52.414;13.226;2023-03-21T10:44:17;11.40;97.90
64209;DHT22;50527;52.414;13.226;2023-03-21T10:46:52;11.50;98.80
64209;DHT22;50527;52.414;13.226;2023-03-21T10:49:18;11.40;98.80
64209;DHT22;50527;52.414;13.226;2023-03-21T10:51:47;11.40;99.10
64209;DHT22;50527;52.414;13.226;2023-03-21T10:54:17;11.70;98.50
64209;DHT22;50527;52.414;13.226;2023-03-21T10:56:51;11.70;97.70
64209;DHT22;50527;52.414;13.226;2023-03-21T10:59:19;11.80;97.20
64209;DHT22;50527;52.414;13.226;2023-03-21T11:01:51;12.00;96.00
64209;DHT22;50527;52.414;13.226;2023-03-21T11:04:23;12.00;96.50
64209;DHT22;50527;52.414;13.226;2023-03-21T11:06:56;12.10;95.60
64209;DHT22;50527;52.414;13.226;2023-03-21T11:09:25;12.20;96.10
64209;DHT22;50527;52.414;13.226;2023-03-21T11:12:01;12.40;95.00
64209;DHT22;50527;52.414;13.226;2023-03-21T11:14:39;12.30;94.50
64209;DHT22;50527;52.414;13.226;2023-03-21T11:20:00;12.20;94.00
64209;DHT22;50527;52.414;13.226;2023-03-21T11:22:27;12.30;94.70
64209;DHT22;50527;52.414;13.226;2023-03-21T11:24:58;12.30;93.90
64209;DHT22;50527;52.414;13.226;2023-03-21T11:27:27;12.10;94.30
64209;DHT22;50527;52.414;13.226;2023-03-21T11:29:55;12.10;94.60
64209;DHT22;50527;52.414;13.226;2023-03-21T11:32:25;12.20;93.60
64209;DHT22;50527;52.414;13.226;2023-03-21T11:37:44;12.60;92.60
64209;DHT22;50527;52.414;13.226;2023-03-21T11:40:18;12.80;92.80
64209;DHT22;50527;52.414;13.226;2023-03-21T11:42:48;12.90;92.40
64209;DHT22;50527;52.414;13.226;2023-03-21T11:45:21;12.90;91.70
64209;DHT22;50527;52.414;13.226;2023-03-21T11:47:48;13.00;91.70
64209;DHT22;50527;52.414;13.226;2023-03-21T11:52:56;12.70;91.80
64209;DHT22;50527;52.414;13.226;2023-03-21T11:55:35;12.70;92.30
64209;DHT22;50527;52.414;13.226;2023-03-21T11:58:16;12.80;92.20
64209;DHT22;50527;52.414;13.226;2023-03-21T12:01:07;12.90;91.90
64209;DHT22;50527;52.414;13.226;2023-03-21T12:06:44;13.30;90.60
64209;DHT22;50527;52.414;13.226;2023-03-21T12:09:17;13.60;90.70
64209;DHT22;50527;52.414;13.226;2023-03-21T12:11:55;13.50;88.70
64209;DHT22;50527;52.414;13.226;2023-03-21T12:14:50;13.40;89.60
64209;DHT22;50527;52.414;13.226;2023-03-21T12:17:48;13.40;89.10
64209;DHT22;50527;52.414;13.226;2023-03-21T12:20:32;13.40;89.40
64209;DHT22;50527;52.414;13.226;2023-03-21T12:23:29;13.10;88.80
64209;DHT22;50527;52.414;13.226;2023-03-21T12:29:11;12.90;90.70
64209;DHT22;50527;52.414;13.226;2023-03-21T12:34:51;12.80;91.30
64209;DHT22;50527;52.414;13.226;2023-03-21T12:37:56;12.80;91.70
64209;DHT22;50527;52.414;13.226;2023-03-21T12:40:39;12.70;91.50
64209;DHT22;50527;52.414;13.226;2023-03-21T12:43:34;12.80;92.30
64209;DHT22;50527;52.414;13.226;2023-03-21T12:46:21;12.70;91.00
64209;DHT22;50527;52.414;13.226;2023-03-21T12:48:52;12.60;91.80
64209;DHT22;50527;52.414;13.226;2023-03-21T12:51:25;12.60;91.60
64209;DHT22;50527;52.414;13.226;2023-03-21T12:54:29;12.70;91.70
64209;DHT22;50527;52.414;13.226;2023-03-21T12:57:08;12.70;92.10
64209;DHT22;50527;52.414;13.226;2023-03-21T12:59:40;12.80;92.10
64209;DHT22;50527;52.414;13.226;2023-03-21T13:02:17;12.80;91.00
64209;DHT22;50527;52.414;13.226;2023-03-21T13:07:42;12.80;91.80
64209;DHT22;50527;52.414;13.226;2023-03-21T13:10:18;12.80;91.50
64209;DHT22;50527;52.414;13.226;2023-03-21T13:18:53;12.70;91.80
64209;DHT22;50527;52.414;13.226;2023-03-21T13:24:03;12.80;91.70
64209;DHT22;50527;52.414;13.226;2023-03-21T13:26:36;12.80;91.70
64209;DHT22;50527;52.414;13.226;2023-03-21T13:29:21;12.90;92.20
64209;DHT22;50527;52.414;13.226;2023-03-21T13:31:48;12.90;92.50
64209;DHT22;50527;52.414;13.226;2023-03-21T13:34:15;13.00;91.40
64209;DHT22;50527;52.414;13.226;2023-03-21T13:36:43;13.00;91.20
64209;DHT22;50527;52.414;13.226;2023-03-21T13:39:23;12.90;91.50
64209;DHT22;50527;52.414;13.226;2023-03-21T13:41:49;12.90;92.30
64209;DHT22;50527;52.414;13.226;2023-03-21T13:44:22;12.90;92.90
64209;DHT22;50527;52.414;13.226;2023-03-21T13:47:01;12.80;93.00
64209;DHT22;50527;52.414;13.226;2023-03-21T13:49:36;12.90;92.80
64209;DHT22;50527;52.414;13.226;2023-03-21T13:54:53;13.00;92.40
64209;DHT22;50527;52.414;13.226;2023-03-21T14:00:34;13.10;92.00
64209;DHT22;50527;52.414;13.226;2023-03-21T14:03:12;13.10;92.20
64209;DHT22;50527;52.414;13.226;2023-03-21T14:05:39;13.20;92.70
64209;DHT22;50527;52.414;13.226;2023-03-21T14:08:07;13.20;91.70
64209;DHT22;50527;52.414;13.226;2023-03-21T14:10:39;13.10;91.10
64209;DHT22;50527;52.414;13.226;2023-03-21T14:13:10;13.00;92.00
64209;DHT22;50527;52.414;13.226;2023-03-21T14:15:44;13.00;92.40
64209;DHT22;50527;52.414;13.226;2023-03-21T14:18:19;13.10;93.00
64209;DHT22;50527;52.414;13.226;2023-03-21T14:20:50;13.20;92.50
64209;DHT22;50527;52.414;13.226;2023-03-21T14:23:16;13.10;92.60
64209;DHT22;50527;52.414;13.226;2023-03-21T14:25:43;13.10;92.60
64209;DHT22;50527;52.414;13.226;2023-03-21T14:28:27;13.10;92.40
64209;DHT22;50527;52.414;13.226;2023-03-21T14:30:56;13.00;92.90
64209;DHT22;50527;52.414;13.226;2023-03-21T14:33:37;13.00;93.00
64209;DHT22;50527;52.414;13.226;2023-03-21T14:36:16;13.00;92.70
64209;DHT22;50527;52.414;13.226;2023-03-21T14:38:42;13.00;93.10
64209;DHT22;50527;52.414;13.226;2023-03-21T14:41:23;13.10;92.40
64209;DHT22;50527;52.414;13.226;2023-03-21T14:44:16;13.10;92.40
64209;DHT22;50527;52.414;13.226;2023-03-21T14:46:42;13.10;92.10
64209;DHT22;50527;52.414;13.226;2023-03-21T14:49:29;13.20;92.30
64209;DHT22;50527;52.414;13.226;2023-03-21T14:52:09;13.30;92.20
64209;DHT22;50527;52.414;13.226;2023-03-21T14:54:39;13.20;92.30
64209;DHT22;50527;52.414;13.226;2023-03-21T14:57:12;13.20;92.40
64209;DHT22;50527;52.414;13.226;2023-03-21T14:59:38;13.20;92.30
64209;DHT22;50527;52.414;13.226;2023-03-21T15:02:16;13.10;92.40
64209;DHT22;50527;52.414;13.226;2023-03-21T15:04:56;13.10;92.90
64209;DHT22;50527;52.414;13.226;2023-03-21T15:07:25;13.20;92.60
64209;DHT22;50527;52.414;13.226;2023-03-21T15:09:56;13.20;92.90
64209;DHT22;50527;52.414;13.226;2023-03-21T15:12:22;13.10;93.10
64209;DHT22;50527;52.414;13.226;2023-03-21T15:14:47;13.10;92.60
64209;DHT22;50527;52.414;13.226;2023-03-21T15:17:13;13.00;92.70
64209;DHT22;50527;52.414;13.226;2023-03-21T15:19:39;13.00;93.10
64209;DHT22;50527;52.414;13.226;2023-03-21T15:22:13;13.00;93.60
64209;DHT22;50527;52.414;13.226;2023-03-21T15:24:42;13.00;93.50
64209;DHT22;50527;52.414;13.226;2023-03-21T15:27:15;13.00;93.40
64209;DHT22;50527;52.414;13.226;2023-03-21T15:29:42;13.00;93.60
64209;DHT22;50527;52.414;13.226;2023-03-21T15:32:13;13.00;93.90
64209;DHT22;50527;52.414;13.226;2023-03-21T15:34:40;13.00;94.10
64209;DHT22;50527;52.414;13.226;2023-03-21T15:37:12;13.00;93.50
64209;DHT22;50527;52.414;13.226;2023-03-21T15:39:39;13.10;93.90
64209;DHT22;50527;52.414;13.226;2023-03-21T15:42:37;13.10;93.20
64209;DHT22;50527;52.414;13.226;2023-03-21T15:52:49;12.80;94.00
64209;DHT22;50527;52.414;13.226;2023-03-21T15:55:24;12.80;94.60
64209;DHT22;50527;52.414;13.226;2023-03-21T15:57:54;12.80;93.90
64209;DHT22;50527;52.414;13.226;2023-03-21T16:00:38;12.70;94.50
64209;DHT22;50527;52.414;13.226;2023-03-21T16:03:15;12.70;94.30
64209;DHT22;50527;52.414;13.226;2023-03-21T16:06:19;12.70;94.60
64209;DHT22;50527;52.414;13.226;2023-03-21T16:09:14;12.70;94.60
64209;DHT22;50527;52.414;13.226;2023-03-21T16:11:52;12.80;94.90
64209;DHT22;50527;52.414;13.226;2023-03-21T16:14:19;12.80;95.50
64209;DHT22;50527;52.414;13.226;2023-03-21T16:16:45;12.80;95.10
64209;DHT22;50527;52.414;13.226;2023-03-21T16:19:11;12.80;95.40
64209;DHT22;50527;52.414;13.226;2023-03-21T16:21:37;12.80;95.50
64209;DHT22;50527;52.414;13.226;2023-03-21T16:24:07;12.80;95.50
64209;DHT22;50527;52.414;13.226;2023-03-21T16:26:36;12.70;95.30
64209;DHT22;50527;52.414;13.226;2023-03-21T16:29:02;12.80;95.70
64209;DHT22;50527;52.414;13.226;2023-03-21T16:31:31;12.80;95.30
64209;DHT22;50527;52.414;13.226;2023-03-21T16:33:56;12.80;95.40
64209;DHT22;50527;52.414;13.226;2023-03-21T16:36:33;12.80;96.20
64209;DHT22;50527;52.414;13.226;2023-03-21T16:39:01;12.80;95.90
64209;DHT22;50527;52.414;13.226;2023-03-21T16:41:30;12.80;95.90
64209;DHT22;50527;52.414;13.226;2023-03-21T16:43:55;12.70;95.80
64209;DHT22;50527;52.414;13.226;2023-03-21T16:46:25;12.70;95.70